Time;durP1;ratioP1;P1;durP2;ratioP2;P2;SDS_P1;SDS_P2;PMS_P1;PMS_P2;Temp;Humidity;BMP_temperature;BMP_pressure;BME280_temperature;BME280_humidity;BME280_pressure;Samples;Min_cycle;Max_cycle;Signal;HPM_P1;HPM_P2
2022/03/20 00:02:01;;;;;;;32.43;17.93;;;2.50;99.90;;;;;;4992352;28;20795;-74
2022/03/20 00:04:26;;;;;;;27.07;18.30;;;2.50;99.90;;;;;;4991530;28;20210;-74
2022/03/20 00:06:52;;;;;;;26.37;18.20;;;2.40;99.90;;;;;;4992332;28;20611;-74
2022/03/20 00:09:17;;;;;;;26.23;17.27;;;2.40;99.90;;;;;;4991906;28;20176;-74
2022/03/20 00:11:43;;;;;;;31.23;19.97;;;2.50;99.90;;;;;;4992405;28;20251;-74
2022/03/20 00:14:08;;;;;;;24.90;16.60;;;2.50;99.90;;;;;;4990937;28;20213;-74
2022/03/20 00:16:34;;;;;;;34.20;20.10;;;2.50;99.90;;;;;;4992522;28;20238;-74
2022/03/20 00:18:59;;;;;;;29.13;18.50;;;2.50;99.90;;;;;;4992508;28;20188;-73
2022/03/20 00:21:25;;;;;;;30.23;17.67;;;2.50;99.90;;;;;;4992370;28;20561;-73
2022/03/20 00:23:51;;;;;;;28.40;16.53;;;2.50;99.90;;;;;;4991299;28;20269;-74
2022/03/20 00:26:18;;;;;;;28.53;17.43;;;2.50;99.90;;;;;;4992068;28;20237;-73
2022/03/20 00:28:44;;;;;;;36.47;19.20;;;2.50;99.90;;;;;;4991724;28;20184;-74
2022/03/20 00:31:10;;;;;;;40.73;19.17;;;2.50;99.90;;;;;;4990997;28;20522;-73
2022/03/20 00:33:36;;;;;;;31.17;20.17;;;2.60;99.90;;;;;;4991282;28;20418;-74
2022/03/20 00:36:01;;;;;;;33.20;20.37;;;2.60;99.90;;;;;;4991668;28;20701;-73
2022/03/20 00:38:27;;;;;;;28.90;18.30;;;2.60;99.90;;;;;;4991699;28;20594;-74
2022/03/20 00:40:52;;;;;;;27.33;18.30;;;2.60;99.90;;;;;;4990821;28;20206;-73
2022/03/20 00:43:18;;;;;;;32.07;20.30;;;2.70;99.90;;;;;;4990916;28;20723;-74
2022/03/20 00:45:44;;;;;;;36.87;20.77;;;2.70;99.90;;;;;;4991638;28;20184;-74
2022/03/20 00:48:10;;;;;;;27.73;17.57;;;2.70;99.90;;;;;;4991497;28;20177;-74
2022/03/20 00:50:36;;;;;;;32.57;18.83;;;2.70;99.90;;;;;;4991121;28;20271;-74
2022/03/20 00:53:01;;;;;;;30.90;18.70;;;2.80;99.90;;;;;;4990772;28;20223;-74
2022/03/20 00:55:29;;;;;;;33.23;17.43;;;2.90;99.90;;;;;;4991092;28;20774;-74
2022/03/20 00:57:54;;;;;;;28.90;18.60;;;2.90;99.90;;;;;;4991586;28;20208;-73
2022/03/20 01:00:20;;;;;;;23.30;15.97;;;3.00;99.90;;;;;;4990764;28;20457;-74
2022/03/20 01:02:46;;;;;;;28.00;17.40;;;3.20;99.90;;;;;;4987595;28;20326;-73
2022/03/20 01:05:12;;;;;;;28.77;17.50;;;3.20;99.90;;;;;;4990003;28;20199;-74
2022/03/20 01:07:38;;;;;;;26.07;17.97;;;3.30;99.90;;;;;;4991337;28;20173;-74
2022/03/20 01:10:04;;;;;;;23.87;16.97;;;3.30;99.90;;;;;;4990028;28;20529;-74
2022/03/20 01:12:33;;;;;;;29.90;18.10;;;3.30;99.90;;;;;;4991524;28;20223;-74
2022/03/20 01:14:59;;;;;;;29.40;18.07;;;3.30;99.90;;;;;;4990801;28;20932;-74
2022/03/20 01:17:24;;;;;;;28.17;17.40;;;3.40;99.90;;;;;;4991150;28;20503;-74
2022/03/20 01:19:51;;;;;;;29.33;18.97;;;3.40;99.90;;;;;;4990898;28;20921;-74
2022/03/20 01:22:16;;;;;;;25.60;16.63;;;3.40;99.90;;;;;;4990515;28;20211;-74
2022/03/20 01:24:42;;;;;;;25.50;17.33;;;3.40;99.90;;;;;;4990919;28;20416;-74
2022/03/20 01:27:09;;;;;;;25.40;17.40;;;3.40;99.90;;;;;;4990840;28;20201;-74
2022/03/20 01:29:35;;;;;;;29.40;17.67;;;3.40;99.90;;;;;;4990989;28;20386;-74
2022/03/20 01:32:01;;;;;;;28.63;17.17;;;3.40;99.90;;;;;;4990642;28;20510;-73
2022/03/20 01:34:27;;;;;;;25.20;17.27;;;3.30;99.90;;;;;;4990470;28;20451;-74
2022/03/20 01:36:52;;;;;;;24.40;16.70;;;3.30;99.90;;;;;;4990733;28;20417;-74
2022/03/20 01:39:18;;;;;;;30.30;18.50;;;3.20;99.90;;;;;;4990545;28;20764;-73
2022/03/20 01:41:46;;;;;;;26.60;17.33;;;3.20;99.90;;;;;;4990993;28;20279;-74
2022/03/20 01:44:11;;;;;;;26.10;17.10;;;3.20;99.90;;;;;;4989925;28;20422;-74
2022/03/20 01:46:37;;;;;;;25.70;18.40;;;3.20;99.90;;;;;;4990496;28;20422;-74
2022/03/20 01:49:03;;;;;;;32.03;17.87;;;3.20;99.90;;;;;;4990631;28;20184;-74
2022/03/20 01:54:13;;;;;;;26.10;17.00;;;3.00;99.90;;;;;;4990414;28;20233;-74
2022/03/20 01:56:48;;;;;;;28.93;17.53;;;3.00;99.90;;;;;;4991021;28;20412;-73
2022/03/20 01:59:15;;;;;;;31.93;16.23;;;2.90;99.90;;;;;;4990276;28;20427;-74
2022/03/20 03:32:18;;;;;;;24.77;15.27;;;2.60;99.90;;;;;;5355305;23;20492;-74
2022/03/20 03:37:28;;;;;;;27.30;17.03;;;2.60;99.90;;;;;;4974008;28;20995;-75
2022/03/20 03:39:54;;;;;;;30.10;16.20;;;2.60;99.90;;;;;;4971703;28;20430;-74
2022/03/20 03:42:19;;;;;;;25.27;17.30;;;2.60;99.90;;;;;;4973471;28;20669;-75
2022/03/20 03:44:48;;;;;;;25.83;17.10;;;2.50;99.90;;;;;;4973334;28;20250;-76
2022/03/20 03:47:14;;;;;;;25.87;15.40;;;2.50;99.90;;;;;;4973182;28;20439;-75
2022/03/20 03:49:39;;;;;;;24.30;15.50;;;2.50;99.90;;;;;;4973254;28;20399;-74
2022/03/20 03:52:05;;;;;;;22.30;14.93;;;2.50;99.90;;;;;;4973029;28;20705;-75
2022/03/20 03:54:31;;;;;;;26.80;16.77;;;2.50;99.90;;;;;;4972902;28;20231;-75
2022/03/20 03:56:58;;;;;;;24.50;15.23;;;2.50;99.90;;;;;;4972493;28;20412;-75
2022/03/20 03:59:24;;;;;;;23.70;16.40;;;2.60;99.90;;;;;;4973252;28;20599;-75
2022/03/20 04:01:49;;;;;;;27.67;16.57;;;2.60;99.90;;;;;;4972521;28;20441;-74
2022/03/20 04:04:15;;;;;;;31.33;16.50;;;2.60;99.90;;;;;;4973009;28;20591;-74
2022/03/20 04:06:41;;;;;;;27.90;17.07;;;2.60;99.90;;;;;;4973078;28;20259;-75
2022/03/20 04:09:07;;;;;;;23.63;16.30;;;2.70;99.90;;;;;;4973120;28;20739;-75
2022/03/20 04:11:32;;;;;;;25.70;16.17;;;2.70;99.90;;;;;;4973035;28;20467;-75
2022/03/20 04:13:58;;;;;;;25.53;15.60;;;2.80;99.90;;;;;;4972600;28;20177;-75
2022/03/20 04:16:24;;;;;;;28.30;17.63;;;2.80;99.90;;;;;;4973334;28;20185;-76
2022/03/20 04:18:50;;;;;;;24.80;16.07;;;2.80;99.90;;;;;;4973545;28;20495;-75
2022/03/20 04:21:16;;;;;;;31.37;16.87;;;2.80;99.90;;;;;;4973337;28;20703;-74
2022/03/20 04:23:45;;;;;;;24.73;15.30;;;2.80;99.90;;;;;;4973154;28;20511;-77
2022/03/20 04:26:17;;;;;;;23.50;16.10;;;2.90;99.90;;;;;;4973035;28;20228;-76
2022/03/20 04:28:44;;;;;;;26.00;17.47;;;2.90;99.90;;;;;;4972701;28;20417;-76
2022/03/20 04:31:15;;;;;;;24.27;15.70;;;2.90;99.90;;;;;;4972485;28;20486;-75
2022/03/20 04:33:56;;;;;;;26.60;17.73;;;2.90;99.90;;;;;;4972920;28;20412;-76
2022/03/20 04:36:23;;;;;;;21.73;16.53;;;2.90;99.90;;;;;;4973111;28;20891;-76
2022/03/20 04:38:51;;;;;;;28.43;16.43;;;2.90;99.90;;;;;;4972647;28;20464;-75
2022/03/20 04:41:20;;;;;;;27.83;17.57;;;2.90;99.90;;;;;;4972429;28;20526;-76
2022/03/20 04:43:50;;;;;;;30.47;18.10;;;2.90;99.90;;;;;;4971724;28;20419;-76
2022/03/20 04:46:16;;;;;;;29.00;17.87;;;2.90;99.90;;;;;;4972322;28;20752;-74
2022/03/20 04:59:41;;;;;;;32.03;17.90;;;3.50;99.90;;;;;;4972764;28;20414;-74
2022/03/20 05:02:06;;;;;;;35.80;18.97;;;3.60;99.90;;;;;;4972614;28;20447;-77
2022/03/20 05:04:32;;;;;;;27.60;18.60;;;3.70;99.90;;;;;;4972179;28;20179;-76
2022/03/20 05:06:57;;;;;;;31.53;18.97;;;3.70;99.90;;;;;;4972741;28;20550;-75
2022/03/20 05:14:55;;;;;;;25.50;17.73;;;3.90;99.90;;;;;;4971983;28;20460;-76
2022/03/20 05:17:21;;;;;;;32.97;18.10;;;4.00;99.90;;;;;;4972427;28;20424;-74
2022/03/20 05:19:46;;;;;;;29.47;18.30;;;4.00;99.90;;;;;;4972117;28;20425;-75
2022/03/20 05:22:12;;;;;;;30.23;19.60;;;4.10;99.90;;;;;;4972321;28;20618;-75
2022/03/20 05:24:39;;;;;;;30.47;18.90;;;4.10;99.90;;;;;;4971213;28;20267;-74
2022/03/20 05:27:05;;;;;;;27.47;20.50;;;4.20;99.90;;;;;;4972163;28;20188;-76
2022/03/20 05:29:32;;;;;;;27.47;18.03;;;4.30;99.90;;;;;;4972118;28;20420;-76
2022/03/20 05:32:00;;;;;;;28.73;17.73;;;4.40;99.90;;;;;;4971399;28;20472;-75
2022/03/20 05:34:26;;;;;;;29.60;19.10;;;4.40;99.90;;;;;;4971683;28;20396;-75
2022/03/20 05:36:52;;;;;;;31.87;18.10;;;4.50;99.90;;;;;;4972398;28;20932;-75
2022/03/20 05:39:18;;;;;;;30.43;19.63;;;4.50;99.90;;;;;;4972360;28;20414;-75
2022/03/20 05:41:46;;;;;;;36.50;20.10;;;4.60;99.90;;;;;;4971981;28;20243;-75
2022/03/20 05:44:33;;;;;;;26.17;18.13;;;4.60;99.90;;;;;;4971785;28;20432;-75
2022/03/20 05:47:00;;;;;;;33.47;18.90;;;4.70;99.90;;;;;;4972306;28;20790;-75
2022/03/20 05:49:25;;;;;;;27.63;16.10;;;4.80;99.90;;;;;;4972021;28;20419;-76
2022/03/20 05:51:52;;;;;;;28.10;17.73;;;4.80;99.90;;;;;;4971966;28;20451;-75
2022/03/20 05:54:18;;;;;;;33.20;19.07;;;4.90;99.90;;;;;;4971347;28;20170;-74
2022/03/20 05:59:28;;;;;;;30.30;19.80;;;5.10;99.90;;;;;;4975331;28;20232;-76
2022/03/20 06:01:54;;;;;;;30.23;19.87;;;5.30;99.90;;;;;;4975571;28;20441;-76
2022/03/20 06:04:21;;;;;;;32.40;19.37;;;5.40;99.90;;;;;;4975756;28;20268;-75
2022/03/20 06:06:50;;;;;;;25.80;17.70;;;5.40;99.90;;;;;;4975643;28;20417;-75
2022/03/20 06:09:16;;;;;;;33.80;18.73;;;5.50;99.90;;;;;;4974963;28;20444;-75
2022/03/20 06:11:43;;;;;;;26.87;18.73;;;5.60;99.90;;;;;;4974877;28;20472;-76
2022/03/20 06:14:08;;;;;;;33.03;20.40;;;5.70;99.90;;;;;;4974614;28;20400;-76
2022/03/20 06:16:35;;;;;;;34.47;20.93;;;5.80;99.90;;;;;;4975618;28;20414;-75
2022/03/20 06:19:01;;;;;;;29.63;20.13;;;5.90;99.90;;;;;;4973315;28;20662;-75
2022/03/20 06:21:27;;;;;;;31.87;20.37;;;6.30;99.90;;;;;;4974944;28;20438;-76
2022/03/20 06:23:54;;;;;;;33.33;21.10;;;6.50;99.90;;;;;;4974719;28;20901;-76
2022/03/20 06:26:20;;;;;;;31.27;20.97;;;6.70;99.90;;;;;;4974649;28;20191;-75
2022/03/20 06:28:49;;;;;;;35.07;23.50;;;6.90;99.90;;;;;;4974526;28;20444;-75
2022/03/20 06:31:15;;;;;;;28.97;19.63;;;7.00;99.90;;;;;;4974378;28;20490;-76
2022/03/20 06:33:41;;;;;;;33.47;20.17;;;7.10;99.90;;;;;;4974318;28;20557;-76
2022/03/20 06:36:07;;;;;;;32.60;19.90;;;7.20;99.90;;;;;;4974744;28;20499;-76
2022/03/20 06:38:35;;;;;;;34.97;20.80;;;7.40;99.90;;;;;;4974746;28;20776;-76
2022/03/20 06:41:05;;;;;;;32.47;20.40;;;7.70;99.90;;;;;;4974082;28;20738;-76
2022/03/20 06:43:30;;;;;;;33.17;21.97;;;8.20;99.90;;;;;;4974135;28;20834;-76
2022/03/20 06:45:57;;;;;;;35.90;21.97;;;8.50;99.90;;;;;;4974543;28;20421;-75
2022/03/20 06:48:24;;;;;;;37.57;21.70;;;9.00;99.90;;;;;;4974700;28;20215;-76
2022/03/20 06:50:50;;;;;;;32.33;19.60;;;9.50;99.90;;;;;;4974171;28;20824;-76
2022/03/20 06:53:17;;;;;;;30.00;20.33;;;9.40;99.90;;;;;;4973071;28;21025;-75
2022/03/20 06:55:44;;;;;;;33.67;22.30;;;9.20;99.90;;;;;;4974904;28;20260;-77
2022/03/20 06:58:10;;;;;;;41.07;23.50;;;8.80;99.90;;;;;;4974417;28;20456;-76
2022/03/20 07:00:36;;;;;;;38.10;23.07;;;9.00;99.90;;;;;;4973912;28;20481;-76
2022/03/20 07:03:03;;;;;;;37.13;23.47;;;9.30;99.90;;;;;;4973033;28;20818;-75
2022/03/20 07:05:30;;;;;;;31.57;21.50;;;9.10;99.90;;;;;;4974298;28;20417;-78
2022/03/20 07:07:55;;;;;;;36.83;22.27;;;9.70;99.90;;;;;;4973743;28;20495;-75
2022/03/20 07:10:23;;;;;;;35.57;22.77;;;10.50;99.90;;;;;;4973908;28;20509;-76
2022/03/20 07:12:50;;;;;;;34.30;23.53;;;11.20;99.90;;;;;;4973276;28;20219;-76
2022/03/20 07:15:18;;;;;;;36.43;23.53;;;11.10;99.90;;;;;;4973750;28;20693;-75
2022/03/20 07:17:47;;;;;;;34.63;21.53;;;11.60;99.90;;;;;;4974485;28;20426;-76
2022/03/20 07:20:15;;;;;;;49.50;29.93;;;11.80;99.90;;;;;;4973759;28;20794;-76
2022/03/20 07:22:40;;;;;;;35.67;24.30;;;12.20;99.90;;;;;;4973920;28;20991;-76
2022/03/20 07:30:37;;;;;;;35.77;23.20;;;12.60;99.90;;;;;;4973412;28;20473;-76
2022/03/20 07:33:03;;;;;;;34.37;23.30;;;12.60;99.90;;;;;;4973169;28;20815;-75
2022/03/20 07:35:28;;;;;;;34.00;25.23;;;11.40;99.90;;;;;;4973825;28;20705;-76
2022/03/20 07:37:54;;;;;;;35.13;23.00;;;10.60;99.90;;;;;;4972993;28;20190;-75
2022/03/20 07:40:21;;;;;;;34.30;22.60;;;10.80;99.90;;;;;;4972784;28;20187;-75
2022/03/20 07:42:46;;;;;;;38.20;23.37;;;11.20;99.90;;;;;;4973047;28;20775;-75
2022/03/20 07:45:12;;;;;;;33.63;21.30;;;11.50;99.90;;;;;;4973141;28;20513;-76
2022/03/20 07:47:37;;;;;;;32.10;22.80;;;11.60;99.90;;;;;;4973337;28;20274;-76
2022/03/20 07:50:06;;;;;;;31.27;23.07;;;11.80;99.90;;;;;;4972335;28;20661;-76
2022/03/20 07:52:31;;;;;;;33.10;22.57;;;12.10;99.90;;;;;;4973105;28;20207;-77
2022/03/20 07:54:57;;;;;;;31.50;23.00;;;12.40;99.90;;;;;;4972523;28;20422;-75
2022/03/20 07:57:22;;;;;;;30.80;22.07;;;12.70;99.90;;;;;;4973037;28;20252;-77
2022/03/20 07:59:48;;;;;;;37.83;22.37;;;12.70;99.90;;;;;;4972324;28;20183;-77
2022/03/20 08:02:13;;;;;;;36.10;24.77;;;13.00;99.90;;;;;;4972982;28;20203;-75
2022/03/20 08:04:40;;;;;;;39.57;23.63;;;13.10;99.90;;;;;;4972345;28;20195;-75
2022/03/20 08:07:06;;;;;;;33.53;23.40;;;13.20;99.90;;;;;;4972836;28;20172;-75
2022/03/20 08:09:32;;;;;;;35.73;24.30;;;12.90;99.90;;;;;;4972522;28;20427;-75
2022/03/20 08:11:57;;;;;;;34.30;24.70;;;12.60;99.90;;;;;;4972181;28;20534;-75
2022/03/20 08:14:23;;;;;;;39.90;23.10;;;12.60;99.90;;;;;;4972184;28;20550;-75
2022/03/20 08:16:50;;;;;;;32.23;22.40;;;13.00;99.90;;;;;;4972695;28;20176;-75
2022/03/20 08:19:19;;;;;;;33.77;23.50;;;13.70;99.90;;;;;;4971094;28;20442;-74
2022/03/20 08:21:47;;;;;;;34.67;24.30;;;14.00;99.90;;;;;;4972506;28;20451;-75
2022/03/20 08:24:14;;;;;;;39.53;25.57;;;14.40;99.90;;;;;;4971811;28;20492;-75
2022/03/20 08:26:40;;;;;;;38.00;26.00;;;13.80;99.90;;;;;;4972832;28;20470;-76
2022/03/20 08:29:08;;;;;;;33.70;24.33;;;14.00;99.90;;;;;;4971746;28;20819;-75
2022/03/20 08:31:34;;;;;;;36.03;24.47;;;14.10;99.90;;;;;;4972091;28;20259;-75
2022/03/20 08:34:00;;;;;;;34.53;23.67;;;14.20;99.90;;;;;;4971715;28;20447;-74
2022/03/20 08:36:26;;;;;;;33.43;23.80;;;14.30;99.90;;;;;;4972133;28;20979;-76
2022/03/20 08:38:52;;;;;;;35.33;24.80;;;14.70;99.90;;;;;;4972402;28;20498;-75
2022/03/20 08:41:18;;;;;;;37.70;25.33;;;14.50;99.90;;;;;;4971768;28;20204;-75
2022/03/20 08:43:43;;;;;;;36.30;24.47;;;15.10;99.90;;;;;;4971320;28;20432;-75
2022/03/20 08:46:09;;;;;;;39.07;22.30;;;14.60;99.90;;;;;;4970719;28;20191;-75
2022/03/20 08:48:35;;;;;;;35.70;23.90;;;14.70;99.90;;;;;;4972028;28;20238;-75
2022/03/20 08:51:01;;;;;;;34.57;23.37;;;14.80;99.90;;;;;;4971806;28;20702;-75
2022/03/20 08:53:27;;;;;;;34.33;22.47;;;15.00;99.90;;;;;;4970857;28;20455;-75
2022/03/20 08:55:52;;;;;;;36.07;23.23;;;15.50;99.90;;;;;;4971879;28;20191;-75
2022/03/20 08:58:18;;;;;;;31.97;22.83;;;15.00;99.90;;;;;;4971606;28;20850;-75
2022/03/20 09:00:45;;;;;;;30.30;23.07;;;15.40;99.90;;;;;;4971936;28;20184;-75
2022/03/20 09:03:11;;;;;;;28.23;22.00;;;15.70;99.90;;;;;;4971222;28;20259;-75
2022/03/20 09:05:37;;;;;;;34.13;24.03;;;16.20;99.00;;;;;;4971898;28;20439;-75
2022/03/20 09:08:03;;;;;;;35.00;24.70;;;16.20;99.90;;;;;;4971451;28;20632;-75
2022/03/20 09:10:29;;;;;;;34.93;25.10;;;16.20;98.10;;;;;;4971444;28;20804;-76
2022/03/20 09:12:57;;;;;;;29.20;21.87;;;16.60;98.10;;;;;;4971059;28;20482;-75
2022/03/20 09:15:23;;;;;;;34.90;24.53;;;16.80;97.80;;;;;;4971540;28;20199;-75
2022/03/20 09:20:35;;;;;;;32.37;22.67;;;17.40;96.20;;;;;;4972138;28;20426;-75
2022/03/20 09:23:00;;;;;;;31.80;22.30;;;17.50;95.00;;;;;;4971265;28;20426;-75
2022/03/20 09:25:26;;;;;;;30.27;22.00;;;17.80;95.70;;;;;;4971650;28;20427;-76
2022/03/20 09:27:52;;;;;;;26.83;22.00;;;17.90;94.40;;;;;;4971789;28;20263;-75
2022/03/20 09:30:21;;;;;;;25.23;20.50;;;18.10;93.70;;;;;;4970708;28;20191;-76
2022/03/20 09:32:48;;;;;;;25.90;20.43;;;18.50;94.70;;;;;;4970332;28;20490;-75
2022/03/20 09:35:15;;;;;;;29.37;22.57;;;18.90;93.90;;;;;;4971248;28;20450;-75
2022/03/20 09:37:40;;;;;;;30.07;22.10;;;18.70;91.60;;;;;;4982246;28;20450;-75
2022/03/20 09:40:09;;;;;;;34.97;22.57;;;18.60;91.00;;;;;;4988622;28;20493;-75
2022/03/20 09:42:36;;;;;;;29.77;19.97;;;18.70;90.60;;;;;;4978057;28;20940;-75
2022/03/20 09:45:03;;;;;;;29.80;20.03;;;19.00;90.60;;;;;;4990020;28;20427;-76
2022/03/20 09:47:28;;;;;;;28.03;19.60;;;19.10;90.00;;;;;;4990917;28;20458;-76
2022/03/20 09:49:56;;;;;;;27.83;20.50;;;19.50;91.10;;;;;;4990825;28;20449;-75
2022/03/20 09:52:23;;;;;;;29.00;19.97;;;19.30;89.00;;;;;;4990621;28;20650;-76
2022/03/20 09:54:49;;;;;;;25.90;19.60;;;19.00;89.40;;;;;;4990479;28;20843;-76
2022/03/20 09:57:15;;;;;;;29.10;20.40;;;19.30;91.50;;;;;;4990433;28;20461;-75
2022/03/20 09:59:41;;;;;;;25.60;19.77;;;19.40;90.20;;;;;;4990819;28;20418;-76
2022/03/20 10:02:09;;;;;;;27.27;18.20;;;19.10;91.10;;;;;;4990372;28;20200;-76
2022/03/20 10:04:57;;;;;;;28.10;18.30;;;18.60;92.30;;;;;;4990224;28;20211;-75
2022/03/20 10:07:25;;;;;;;24.90;16.97;;;17.80;93.00;;;;;;4990503;28;20477;-75
2022/03/20 10:10:16;;;;;;;33.30;18.37;;;17.40;95.10;;;;;;4989916;28;20903;-77
2022/03/20 10:12:52;;;;;;;24.43;17.80;;;17.20;95.40;;;;;;4989457;28;21077;-76
2022/03/20 10:15:34;;;;;;;25.13;18.60;;;17.00;96.10;;;;;;4990579;28;20418;-75
2022/03/20 10:18:21;;;;;;;25.73;19.27;;;17.00;96.20;;;;;;4989952;28;20414;-75
2022/03/20 10:20:52;;;;;;;30.97;18.40;;;16.30;96.30;;;;;;4990298;28;20421;-76
2022/03/20 10:23:29;;;;;;;23.07;17.30;;;16.20;97.10;;;;;;4989928;28;20790;-75
2022/03/20 10:25:55;;;;;;;26.50;15.80;;;16.10;97.40;;;;;;4990646;28;20472;-76
2022/03/20 10:28:21;;;;;;;26.93;17.83;;;16.10;98.50;;;;;;4990692;28;20806;-76
2022/03/20 10:31:00;;;;;;;24.23;18.77;;;16.20;99.20;;;;;;4990043;28;20427;-76
2022/03/20 10:33:26;;;;;;;28.00;18.70;;;16.30;99.90;;;;;;4989213;28;20223;-75
2022/03/20 10:36:15;;;;;;;30.80;19.50;;;16.50;99.30;;;;;;4990467;28;20505;-76
2022/03/20 10:38:42;;;;;;;28.00;19.43;;;16.50;99.90;;;;;;4990804;28;20183;-76
2022/03/20 10:41:17;;;;;;;26.33;19.40;;;16.40;99.70;;;;;;4990182;28;20477;-76
2022/03/20 10:43:43;;;;;;;26.43;16.87;;;16.40;99.80;;;;;;4992838;28;20410;-76
2022/03/20 10:46:16;;;;;;;30.63;18.10;;;16.50;99.90;;;;;;4991993;28;20480;-75
2022/03/20 10:48:43;;;;;;;23.70;18.03;;;16.60;99.10;;;;;;4994233;28;20407;-76
2022/03/20 10:51:10;;;;;;;29.57;18.70;;;16.40;99.20;;;;;;4993386;28;20469;-76
2022/03/20 10:53:50;;;;;;;26.20;18.03;;;16.20;99.80;;;;;;4993103;28;20461;-75
2022/03/20 10:56:16;;;;;;;29.07;17.40;;;16.20;99.90;;;;;;4993749;28;20425;-74
2022/03/20 10:58:42;;;;;;;26.00;15.60;;;16.20;99.90;;;;;;4993546;28;20410;-76
2022/03/20 11:01:08;;;;;;;25.60;17.77;;;16.00;98.90;;;;;;4993350;28;20809;-75
2022/03/20 11:03:37;;;;;;;23.27;16.60;;;15.90;98.90;;;;;;4993068;28;20183;-77
2022/03/20 11:06:07;;;;;;;32.03;17.73;;;16.20;99.90;;;;;;4993785;28;20415;-75
2022/03/20 11:08:33;;;;;;;30.03;18.40;;;16.30;98.90;;;;;;4993051;28;20463;-76
2022/03/20 11:11:01;;;;;;;31.40;20.10;;;16.90;98.60;;;;;;4993052;28;20517;-76
2022/03/20 11:13:28;;;;;;;31.93;19.00;;;17.30;97.20;;;;;;4992882;28;20798;-75
2022/03/20 11:15:56;;;;;;;27.73;20.00;;;17.30;96.60;;;;;;4992104;28;20411;-76
2022/03/20 11:18:26;;;;;;;27.80;18.97;;;17.20;96.30;;;;;;4993363;28;20517;-76
2022/03/20 11:20:53;;;;;;;28.50;20.07;;;17.00;97.40;;;;;;4993031;28;20464;-75
2022/03/20 11:23:24;;;;;;;26.90;18.43;;;17.00;96.90;;;;;;4990986;28;20433;-76
2022/03/20 11:25:52;;;;;;;27.90;16.53;;;16.70;97.30;;;;;;4993356;28;20411;-76
2022/03/20 11:28:20;;;;;;;30.37;19.80;;;16.50;97.30;;;;;;4993277;28;20446;-76
2022/03/20 11:30:47;;;;;;;33.83;19.00;;;16.40;96.90;;;;;;4992793;28;20453;-76
2022/03/20 11:33:14;;;;;;;27.43;19.63;;;16.30;97.70;;;;;;4991987;28;20442;-76
2022/03/20 11:35:40;;;;;;;28.53;18.87;;;16.40;96.80;;;;;;4992994;28;20423;-75
2022/03/20 11:38:16;;;;;;;30.53;18.03;;;16.40;97.40;;;;;;4993076;28;20413;-75
2022/03/20 11:41:04;;;;;;;24.73;17.33;;;16.50;97.00;;;;;;4992669;28;20448;-76
2022/03/20 11:43:30;;;;;;;31.30;17.00;;;16.60;97.10;;;;;;4992300;28;20438;-76
2022/03/20 11:46:17;;;;;;;26.10;17.80;;;16.70;97.30;;;;;;4992737;28;20425;-75
2022/03/20 11:48:45;;;;;;;27.13;18.73;;;16.80;97.30;;;;;;4992515;28;20418;-76
2022/03/20 11:51:11;;;;;;;27.37;19.40;;;16.60;97.00;;;;;;4992578;28;20557;-76
2022/03/20 11:53:40;;;;;;;25.43;18.60;;;16.70;96.60;;;;;;4993173;28;20505;-75
2022/03/20 11:56:07;;;;;;;28.10;19.97;;;16.90;97.70;;;;;;4992420;28;20418;-76
2022/03/20 11:58:36;;;;;;;30.23;19.80;;;17.10;98.30;;;;;;4991686;28;20480;-75
2022/03/20 12:01:05;;;;;;;26.37;18.20;;;17.20;96.60;;;;;;4992211;28;20801;-76
2022/03/20 12:03:56;;;;;;;36.40;20.23;;;17.30;96.40;;;;;;4990590;28;20931;-77
2022/03/20 12:06:40;;;;;;;27.47;17.97;;;17.00;96.90;;;;;;4992489;28;20780;-75
2022/03/20 12:09:09;;;;;;;24.70;16.77;;;16.70;96.30;;;;;;4991817;28;20418;-76
2022/03/20 12:11:46;;;;;;;25.70;16.77;;;16.50;97.80;;;;;;4992666;28;20481;-76
2022/03/20 12:14:24;;;;;;;27.50;17.27;;;16.60;97.30;;;;;;4991890;28;20946;-76
2022/03/20 12:16:50;;;;;;;25.50;18.10;;;16.60;97.70;;;;;;4992541;28;20786;-75
2022/03/20 12:19:21;;;;;;;26.33;17.03;;;16.60;97.10;;;;;;4991784;28;20568;-75
2022/03/20 12:21:58;;;;;;;32.23;18.00;;;16.40;98.00;;;;;;4992038;28;20926;-75
2022/03/20 12:24:35;;;;;;;24.20;17.50;;;16.20;97.50;;;;;;4991564;28;20425;-75
2022/03/20 12:27:23;;;;;;;26.07;16.50;;;16.20;97.20;;;;;;4991998;28;20438;-75
2022/03/20 12:29:59;;;;;;;24.67;15.57;;;16.10;96.90;;;;;;4992038;28;20425;-76
2022/03/20 12:32:50;;;;;;;30.70;17.13;;;16.00;97.20;;;;;;4991131;28;20487;-76
2022/03/20 12:35:23;;;;;;;25.73;16.60;;;16.00;97.30;;;;;;4991739;28;20472;-74
2022/03/20 12:37:50;;;;;;;26.20;16.03;;;16.00;97.40;;;;;;4991958;28;20437;-76
2022/03/20 12:40:20;;;;;;;23.67;14.73;;;16.20;97.60;;;;;;4991293;28;20422;-74
2022/03/20 12:43:03;;;;;;;22.97;15.90;;;16.40;98.60;;;;;;4990872;28;20454;-75
2022/03/20 12:45:30;;;;;;;22.77;14.20;;;16.50;97.40;;;;;;4992020;28;20441;-75
2022/03/20 12:48:00;;;;;;;25.23;15.53;;;16.70;97.00;;;;;;4991684;28;20923;-75
2022/03/20 12:50:33;;;;;;;19.43;15.13;;;16.80;97.00;;;;;;4991214;28;20423;-75
2022/03/20 12:53:07;;;;;;;23.93;15.17;;;16.90;96.70;;;;;;4990278;28;20524;-75
2022/03/20 12:55:34;;;;;;;20.63;14.17;;;17.00;97.20;;;;;;4991627;28;20770;-76
2022/03/20 12:58:00;;;;;;;20.90;14.73;;;16.80;97.70;;;;;;4991542;28;20958;-76
2022/03/20 13:00:28;;;;;;;25.77;16.33;;;16.70;97.30;;;;;;4991103;28;20414;-75
2022/03/20 13:03:08;;;;;;;25.67;16.80;;;16.40;96.90;;;;;;4990997;28;20208;-75
2022/03/20 13:05:38;;;;;;;23.60;16.53;;;16.30;97.30;;;;;;4990498;28;20835;-75
2022/03/20 13:08:07;;;;;;;30.10;16.57;;;16.30;97.60;;;;;;4991546;28;20434;-76
2022/03/20 13:10:40;;;;;;;19.30;13.27;;;16.20;97.40;;;;;;4991089;28;20449;-75
2022/03/20 13:13:07;;;;;;;23.50;14.80;;;16.20;96.40;;;;;;4990527;28;20466;-75
2022/03/20 13:15:36;;;;;;;22.27;14.13;;;16.10;97.50;;;;;;4991126;28;20422;-75
2022/03/20 13:18:03;;;;;;;24.80;15.10;;;16.00;97.20;;;;;;4990795;28;20414;-75
2022/03/20 13:20:31;;;;;;;25.43;15.40;;;15.90;97.70;;;;;;4990696;28;20415;-76
2022/03/20 13:22:58;;;;;;;22.10;16.17;;;15.90;98.00;;;;;;4990494;28;20448;-75
2022/03/20 13:25:26;;;;;;;20.60;14.83;;;15.90;97.40;;;;;;4991026;28;20426;-76
2022/03/20 13:27:53;;;;;;;23.60;15.20;;;15.90;98.10;;;;;;4990780;28;20438;-75
2022/03/20 13:30:31;;;;;;;21.73;14.30;;;15.90;97.40;;;;;;4990065;28;20501;-75
2022/03/20 13:32:57;;;;;;;22.23;14.40;;;15.90;96.80;;;;;;4989950;28;21065;-75
2022/03/20 13:35:24;;;;;;;19.00;14.50;;;15.80;97.10;;;;;;4990746;28;20414;-75
2022/03/20 13:38:00;;;;;;;16.77;12.73;;;15.80;96.90;;;;;;4990878;28;20415;-77
2022/03/20 13:40:30;;;;;;;20.90;13.23;;;15.90;97.00;;;;;;4989679;28;20424;-75
2022/03/20 13:42:55;;;;;;;21.90;15.20;;;16.10;96.40;;;;;;4988796;28;20454;-75
2022/03/20 13:45:22;;;;;;;25.23;14.80;;;16.20;96.20;;;;;;4990476;28;20433;-75
2022/03/20 13:47:49;;;;;;;25.20;13.70;;;16.30;95.10;;;;;;4990848;28;20245;-75
2022/03/20 13:50:16;;;;;;;19.50;13.23;;;16.50;94.50;;;;;;4990502;28;20423;-75
2022/03/20 13:52:42;;;;;;;21.80;13.20;;;16.60;95.00;;;;;;4990131;28;20474;-75
2022/03/20 13:55:19;;;;;;;24.70;13.33;;;16.60;95.00;;;;;;4989869;28;20451;-77
2022/03/20 13:57:56;;;;;;;19.00;11.57;;;16.60;93.80;;;;;;4990886;28;20429;-76
2022/03/20 14:00:32;;;;;;;24.60;13.07;;;16.50;93.60;;;;;;4894295;28;20806;-82
2022/03/20 14:02:58;;;;;;;25.97;15.20;;;16.50;93.70;;;;;;4902766;28;20774;-78
2022/03/20 14:05:24;;;;;;;21.57;15.33;;;16.50;93.70;;;;;;4898179;28;20687;-77
2022/03/20 14:08:13;;;;;;;26.13;14.97;;;16.50;93.70;;;;;;4886926;28;20649;-79
2022/03/20 14:10:52;;;;;;;25.50;15.57;;;16.60;93.30;;;;;;4904723;28;20786;-78
2022/03/20 14:13:29;;;;;;;24.83;13.30;;;16.70;93.10;;;;;;4911362;28;20594;-78
2022/03/20 14:16:11;;;;;;;24.83;14.93;;;16.80;93.40;;;;;;4905971;28;20407;-78
2022/03/20 14:18:56;;;;;;;23.47;13.07;;;16.80;92.90;;;;;;4909633;28;20915;-78
2022/03/20 14:21:31;;;;;;;29.27;15.10;;;16.90;93.10;;;;;;4910523;28;20677;-78
2022/03/20 14:24:08;;;;;;;20.03;14.07;;;16.90;92.20;;;;;;4907038;28;20456;-78
2022/03/20 14:26:37;;;;;;;22.70;13.53;;;16.90;92.20;;;;;;4902289;28;20658;-81
2022/03/20 14:40:59;;;;;;;19.87;15.43;;;17.00;90.70;;;;;;4910159;28;20711;-82
2022/03/20 14:43:26;;;;;;;23.40;16.23;;;16.90;90.20;;;;;;4907401;28;20591;-82
2022/03/20 14:45:57;;;;;;;20.83;15.70;;;16.80;89.90;;;;;;4910467;28;20710;-81
2022/03/20 14:48:29;;;;;;;19.93;14.60;;;16.70;88.70;;;;;;4904300;28;20458;-81
2022/03/20 14:50:55;;;;;;;25.10;15.23;;;16.70;88.30;;;;;;4907074;28;20795;-82
2022/03/20 14:53:23;;;;;;;24.17;15.30;;;16.70;88.40;;;;;;4905194;28;20841;-82